Time;durP1;ratioP1;P1;durP2;ratioP2;P2;SDS_P1;SDS_P2;PMS_P1;PMS_P2;Temp;Humidity;BMP_temperature;BMP_pressure;BME280_temperature;BME280_humidity;BME280_pressure;Samples;Min_cycle;Max_cycle;Signal;HPM_P1;HPM_P2
2021/09/25 00:00:44;;;;;;;;;;;;;;;12.11;78.69;101212.87;1731055;82;20168;-77
2021/09/25 00:03:10;;;;;;;;;;;;;;;12.09;79.10;101211.31;1722619;82;20188;-78
2021/09/25 00:05:37;;;;;;;;;;;;;;;12.08;79.40;101210.93;1726764;83;20568;-80
2021/09/25 00:08:05;;;;;;;;;;;;;;;12.10;79.69;101220.77;1722200;83;20216;-77
2021/09/25 00:10:32;;;;;;;;;;;;;;;12.13;79.96;101217.97;1729959;83;21811;-82
2021/09/25 00:12:58;;;;;;;;;;;;;;;12.13;80.03;101216.20;1727215;82;20128;-80
2021/09/25 00:15:25;;;;;;;;;;;;;;;12.14;80.03;101213.98;1723471;83;20093;-81
2021/09/25 00:17:51;;;;;;;;;;;;;;;12.16;80.03;101212.11;1728096;81;20121;-78
2021/09/25 00:20:18;;;;;;;;;;;;;;;12.18;80.00;101212.02;1726706;83;20140;-79
2021/09/25 00:22:45;;;;;;;;;;;;;;;12.18;79.82;101213.32;1729604;83;21206;-79
2021/09/25 00:25:11;;;;;;;;;;;;;;;12.20;79.64;101212.75;1729856;83;20117;-81
2021/09/25 00:27:38;;;;;;;;;;;;;;;12.19;79.44;101214.51;1729525;82;20128;-80
2021/09/25 00:30:05;;;;;;;;;;;;;;;12.21;79.16;101214.42;1726955;83;20177;-81
2021/09/25 00:32:33;;;;;;;;;;;;;;;12.22;78.93;101221.28;1712877;83;20122;-81
2021/09/25 00:35:01;;;;;;;;;;;;;;;12.24;78.62;101210.78;1722070;82;20581;-81
2021/09/25 00:37:28;;;;;;;;;;;;;;;12.28;78.21;101210.97;1729412;83;20081;-79
2021/09/25 00:39:54;;;;;;;;;;;;;;;12.33;77.92;101226.64;1720325;83;20180;-79
2021/09/25 00:42:20;;;;;;;;;;;;;;;12.35;77.61;101220.86;1726299;83;20085;-82
2021/09/25 00:44:47;;;;;;;;;;;;;;;12.35;77.27;101222.16;1729477;83;20121;-78
2021/09/25 00:47:13;;;;;;;;;;;;;;;12.35;77.07;101226.07;1725351;82;21197;-80
2021/09/25 00:49:40;;;;;;;;;;;;;;;12.36;76.75;101223.84;1729546;83;20439;-77
2021/09/25 00:52:07;;;;;;;;;;;;;;;12.36;76.63;101228.21;1722256;83;20165;-81
2021/09/25 00:54:34;;;;;;;;;;;;;;;12.35;76.64;101227.37;1729093;83;20140;-83
2021/09/25 00:57:02;;;;;;;;;;;;;;;12.32;76.65;101230.17;1714052;82;20150;-78
2021/09/25 00:59:28;;;;;;;;;;;;;;;12.29;76.77;101226.47;1699315;83;21215;-79
2021/09/25 01:01:54;;;;;;;;;;;;;;;12.28;76.89;101235.69;1699037;83;20184;-80
2021/09/25 01:04:20;;;;;;;;;;;;;;;12.27;77.09;101235.31;1731468;82;20153;-78
2021/09/25 01:06:47;;;;;;;;;;;;;;;12.24;77.44;101240.71;1729514;83;20088;-81
2021/09/25 01:09:14;;;;;;;;;;;;;;;12.17;77.70;101244.17;1729850;83;20119;-76
2021/09/25 01:11:40;;;;;;;;;;;;;;;12.12;77.92;101244.94;1729482;83;21153;-82
2021/09/25 01:14:07;;;;;;;;;;;;;;;12.09;78.14;101248.54;1729616;83;20535;-75
2021/09/25 01:16:33;;;;;;;;;;;;;;;12.04;78.51;101247.16;1728838;83;20220;-81
2021/09/25 01:18:59;;;;;;;;;;;;;;;12.00;78.85;101249.58;1729335;83;20125;-80
2021/09/25 01:21:27;;;;;;;;;;;;;;;11.96;79.23;101250.73;1721240;82;20131;-82
2021/09/25 01:23:53;;;;;;;;;;;;;;;11.91;79.62;101248.40;1729544;83;21541;-83
2021/09/25 01:26:20;;;;;;;;;;;;;;;11.84;79.82;101251.00;1726628;83;20185;-79
2021/09/25 01:28:47;;;;;;;;;;;;;;;11.79;79.94;101250.92;1724853;83;20098;-83
2021/09/25 01:31:13;;;;;;;;;;;;;;;11.74;80.08;101247.33;1727333;83;20444;-80
2021/09/25 01:33:44;;;;;;;;;;;;;;;11.72;80.16;101256.12;1718307;83;20105;-80
2021/09/25 01:36:11;;;;;;;;;;;;;;;11.70;80.13;101258.83;1722913;82;21145;-80
2021/09/25 01:38:38;;;;;;;;;;;;;;;11.71;79.87;101264.88;1729433;83;20121;-80
2021/09/25 01:41:04;;;;;;;;;;;;;;;11.72;79.41;101269.12;1729990;83;20532;-87
2021/09/25 01:43:31;;;;;;;;;;;;;;;11.74;79.07;101274.63;1729714;83;20156;-84
2021/09/25 01:45:57;;;;;;;;;;;;;;;11.77;78.43;101275.73;1726015;83;20097;-82
2021/09/25 01:48:24;;;;;;;;;;;;;;;11.83;77.90;101286.22;1729042;81;21151;-82
2021/09/25 01:50:50;;;;;;;;;;;;;;;11.85;77.46;101279.15;1729533;83;20140;-80
2021/09/25 01:53:18;;;;;;;;;;;;;;;11.85;77.14;101270.89;1725480;81;20088;-83
2021/09/25 01:55:44;;;;;;;;;;;;;;;11.85;76.59;101277.39;1728182;83;21028;-77
2021/09/25 01:58:11;;;;;;;;;;;;;;;11.85;76.13;101276.55;1721341;83;20132;-82
2021/09/25 02:00:37;;;;;;;;;;;;;;;11.86;75.70;101282.97;1729356;82;22156;-77
2021/09/25 02:03:06;;;;;;;;;;;;;;;11.86;75.34;101281.67;1727092;83;20147;-79
2021/09/25 02:05:32;;;;;;;;;;;;;;;11.87;75.01;101282.02;1730352;82;20121;-80
2021/09/25 02:07:59;;;;;;;;;;;;;;;11.90;74.75;101278.42;1730981;83;20115;-78
2021/09/25 02:10:26;;;;;;;;;;;;;;;11.91;74.43;101286.57;1720426;83;20192;-80
2021/09/25 02:12:53;;;;;;;;;;;;;;;11.91;74.44;101285.27;1730463;82;21816;-78
2021/09/25 02:15:20;;;;;;;;;;;;;;;11.90;74.21;101290.13;1726030;83;20776;-77
2021/09/25 02:17:46;;;;;;;;;;;;;;;11.90;73.98;101297.44;1725337;82;20105;-78
2021/09/25 02:20:12;;;;;;;;;;;;;;;11.88;73.96;101299.77;1729612;83;20096;-79
2021/09/25 02:22:39;;;;;;;;;;;;;;;11.86;74.06;101296.44;1724798;83;20177;-79
2021/09/25 02:25:07;;;;;;;;;;;;;;;11.83;74.14;101296.62;1729852;83;21157;-78
2021/09/25 02:27:39;;;;;;;;;;;;;;;11.79;74.14;101302.93;1729618;83;20097;-78
2021/09/25 02:30:02;;;;;;;;;;;;;;;11.75;74.17;101304.03;1726069;83;20110;-79
2021/09/25 02:32:28;;;;;;;;;;;;;;;11.72;74.16;101307.66;1729852;83;20116;-77
2021/09/25 02:34:54;;;;;;;;;;;;;;;11.68;74.17;101306.98;1729034;83;20173;-77
2021/09/25 02:37:21;;;;;;;;;;;;;;;11.65;74.01;101305.86;1729683;83;21529;-80
2021/09/25 02:39:47;;;;;;;;;;;;;;;11.64;73.98;101300.31;1725793;82;20105;-75
2021/09/25 02:42:13;;;;;;;;;;;;;;;11.63;73.88;101307.73;1729276;83;20136;-81
2021/09/25 02:44:42;;;;;;;;;;;;;;;11.63;73.81;101301.69;1729670;82;20156;-76
2021/09/25 02:47:09;;;;;;;;;;;;;;;11.63;73.62;101299.94;1729746;83;20443;-77
2021/09/25 02:49:36;;;;;;;;;;;;;;;11.65;73.51;101301.13;1729385;83;21140;-81
2021/09/25 02:52:03;;;;;;;;;;;;;;;11.68;73.38;101310.04;1718572;83;20121;-81
2021/09/25 02:54:30;;;;;;;;;;;;;;;11.72;73.24;101308.13;1729128;83;20454;-83
2021/09/25 02:56:56;;;;;;;;;;;;;;;11.75;72.89;101315.73;1721855;83;20113;-76
2021/09/25 02:59:22;;;;;;;;;;;;;;;11.78;72.77;101320.29;1726548;83;20145;-84
2021/09/25 03:01:49;;;;;;;;;;;;;;;11.81;72.66;101320.56;1724932;83;21474;-81
2021/09/25 03:04:15;;;;;;;;;;;;;;;11.84;72.17;101322.52;1716171;83;20105;-84
2021/09/25 03:06:41;;;;;;;;;;;;;;;11.92;71.80;101330.70;1713002;83;20089;-79
2021/09/25 03:09:08;;;;;;;;;;;;;;;11.98;71.49;101329.48;1718181;83;20084;-80
2021/09/25 03:11:34;;;;;;;;;;;;;;;12.02;71.22;101340.92;1727787;83;20180;-78
2021/09/25 03:14:01;;;;;;;;;;;;;;;12.05;71.02;101343.80;1727915;83;21162;-82
2021/09/25 03:16:27;;;;;;;;;;;;;;;12.04;71.05;101349.46;1718574;82;20118;-79
2021/09/25 03:18:53;;;;;;;;;;;;;;;11.99;71.27;101351.52;1726725;81;20113;-81
2021/09/25 03:21:21;;;;;;;;;;;;;;;11.94;71.51;101357.91;1726400;83;20170;-78
2021/09/25 03:23:47;;;;;;;;;;;;;;;11.88;71.75;101365.63;1721370;83;20428;-76
2021/09/25 03:26:13;;;;;;;;;;;;;;;11.85;71.87;101370.17;1712211;83;21150;-80
2021/09/25 03:28:41;;;;;;;;;;;;;;;11.84;71.86;101373.72;1721323;83;20117;-77
2021/09/25 03:31:07;;;;;;;;;;;;;;;11.84;71.94;101370.62;1726508;82;20101;-78
2021/09/25 03:33:33;;;;;;;;;;;;;;;11.85;71.99;101377.97;1725055;83;20491;-77
2021/09/25 03:36:00;;;;;;;;;;;;;;;11.84;72.12;101374.53;1728213;83;20117;-76
2021/09/25 03:42:25;;;;;;;;;;;;;;;11.81;72.21;101371.27;1715203;82;20174;-79
2021/09/25 03:44:52;;;;;;;;;;;;;;;11.79;72.41;101378.34;1721677;82;20468;-78
2021/09/25 03:47:18;;;;;;;;;;;;;;;11.77;72.50;101381.05;1729710;83;20085;-75
2021/09/25 03:49:44;;;;;;;;;;;;;;;11.76;72.64;101387.62;1729748;83;20247;-79
2021/09/25 03:52:10;;;;;;;;;;;;;;;11.76;72.74;101391.53;1728284;83;21191;-78
2021/09/25 03:54:37;;;;;;;;;;;;;;;11.71;73.00;101394.38;1728587;83;20215;-79
2021/09/25 03:57:04;;;;;;;;;;;;;;;11.69;73.00;101398.81;1719916;83;32467;-76
2021/09/25 03:59:30;;;;;;;;;;;;;;;11.65;73.07;101403.36;1721391;83;20125;-78
2021/09/25 04:01:56;;;;;;;;;;;;;;;11.65;73.05;101403.81;1729264;83;20076;-81
2021/09/25 04:04:23;;;;;;;;;;;;;;;11.62;73.23;101410.50;1729755;83;21169;-77
2021/09/25 04:06:50;;;;;;;;;;;;;;;11.58;73.36;101412.92;1729733;83;20096;-81
2021/09/25 04:09:16;;;;;;;;;;;;;;;11.54;73.38;101417.92;1728414;83;20117;-86
2021/09/25 04:11:48;;;;;;;;;;;;;;;11.51;73.45;101422.84;1728772;83;20470;-84
2021/09/25 04:14:11;;;;;;;;;;;;;;;11.51;73.38;101428.03;1724915;83;20096;-76
2021/09/25 04:16:37;;;;;;;;;;;;;;;11.54;73.18;101424.41;1726453;83;21165;-81
2021/09/25 04:19:04;;;;;;;;;;;;;;;11.61;72.95;101433.54;1724705;83;20156;-76
2021/09/25 04:21:30;;;;;;;;;;;;;;;11.66;72.82;101428.89;1725713;83;20165;-81
2021/09/25 04:23:56;;;;;;;;;;;;;;;11.69;72.79;101432.16;1729567;83;20148;-76
2021/09/25 04:26:22;;;;;;;;;;;;;;;11.72;72.87;101438.97;1727677;83;20113;-83
2021/09/25 04:28:49;;;;;;;;;;;;;;;11.71;73.03;101439.08;1729538;81;22176;-83
2021/09/25 04:31:15;;;;;;;;;;;;;;;11.71;72.97;101441.19;1729811;83;20093;-77
2021/09/25 04:33:41;;;;;;;;;;;;;;;11.74;72.96;101438.44;1723502;82;20468;-76
2021/09/25 04:36:08;;;;;;;;;;;;;;;11.78;72.87;101442.97;1717982;83;20092;-80
2021/09/25 04:38:35;;;;;;;;;;;;;;;11.82;72.75;101445.31;1729394;83;20097;-85
2021/09/25 04:41:01;;;;;;;;;;;;;;;11.86;72.66;101450.72;1729625;83;21161;-79
2021/09/25 04:43:27;;;;;;;;;;;;;;;11.89;72.45;101457.03;1698753;83;20104;-80
2021/09/25 04:45:57;;;;;;;;;;;;;;;11.92;72.37;101461.21;1723844;83;20078;-83
2021/09/25 04:48:22;;;;;;;;;;;;;;;11.96;72.17;101462.25;1720783;83;20127;-80
2021/09/25 04:50:48;;;;;;;;;;;;;;;12.00;72.07;101465.02;1724320;82;20427;-80
2021/09/25 04:53:14;;;;;;;;;;;;;;;12.04;72.01;101463.08;1724766;83;21164;-76
2021/09/25 04:55:42;;;;;;;;;;;;;;;12.06;71.89;101475.06;1725774;83;20165;-75
2021/09/25 04:58:08;;;;;;;;;;;;;;;12.09;71.76;101470.17;1725560;82;20101;-80
2021/09/25 05:00:35;;;;;;;;;;;;;;;12.11;71.51;101471.75;1719500;83;20167;-81
2021/09/25 05:03:01;;;;;;;;;;;;;;;12.17;71.64;101486.14;1729704;83;20164;-82
2021/09/25 05:05:27;;;;;;;;;;;;;;;12.18;71.61;101478.72;1729540;83;21166;-77
2021/09/25 05:07:53;;;;;;;;;;;;;;;12.19;71.73;101481.22;1725020;83;20116;-77
2021/09/25 05:10:22;;;;;;;;;;;;;;;12.23;72.01;101488.84;1729011;82;20113;-84
2021/09/25 05:12:48;;;;;;;;;;;;;;;12.24;72.10;101483.56;1722928;83;20187;-79
2021/09/25 05:15:14;;;;;;;;;;;;;;;12.28;72.35;101483.75;1716242;83;20249;-78
2021/09/25 05:17:40;;;;;;;;;;;;;;;12.31;72.37;101487.48;1716265;83;21114;-81
2021/09/25 05:20:08;;;;;;;;;;;;;;;12.36;72.48;101485.42;1719863;83;20482;-80
2021/09/25 05:22:34;;;;;;;;;;;;;;;12.43;72.51;101479.38;1727395;81;20626;-79
2021/09/25 05:25:00;;;;;;;;;;;;;;;12.52;71.88;101484.86;1729353;83;20128;-82
2021/09/25 05:27:26;;;;;;;;;;;;;;;12.60;71.43;101477.41;1724781;83;20183;-80
2021/09/25 05:29:53;;;;;;;;;;;;;;;12.70;71.02;101474.61;1728795;82;21163;-83
2021/09/25 05:32:19;;;;;;;;;;;;;;;12.79;70.72;101474.98;1730605;83;20138;-82
2021/09/25 05:34:46;;;;;;;;;;;;;;;12.88;70.02;101480.92;1730285;83;20180;-81
2021/09/25 05:37:14;;;;;;;;;;;;;;;12.95;69.32;101485.67;1730175;83;20125;-80
2021/09/25 05:39:40;;;;;;;;;;;;;;;13.03;69.42;101489.91;1730160;83;20180;-80
2021/09/25 05:42:07;;;;;;;;;;;;;;;13.10;68.81;101488.63;1728263;82;21524;-80
2021/09/25 05:44:34;;;;;;;;;;;;;;;13.18;68.44;101497.25;1725222;83;20435;-77
2021/09/25 05:47:00;;;;;;;;;;;;;;;13.28;67.62;101495.73;1725434;83;20211;-83
2021/09/25 05:49:26;;;;;;;;;;;;;;;13.36;67.38;101501.31;1729040;83;20193;-80
2021/09/25 05:51:53;;;;;;;;;;;;;;;13.44;66.95;101510.77;1729677;82;20137;-81
2021/09/25 05:54:19;;;;;;;;;;;;;;;13.54;66.24;101515.76;1722787;81;21151;-79
2021/09/25 05:56:45;;;;;;;;;;;;;;;13.62;66.14;101512.20;1728733;82;20188;-78
2021/09/25 05:59:12;;;;;;;;;;;;;;;13.66;65.66;101518.87;1709234;82;20167;-81
2021/09/25 06:01:38;;;;;;;;;;;;;;;13.72;64.91;101517.66;1702271;84;20129;-80
2021/09/25 06:04:04;;;;;;;;;;;;;;;13.79;64.77;101517.59;1723117;83;20120;-80
2021/09/25 06:06:30;;;;;;;;;;;;;;;13.86;64.83;101519.33;1726281;83;21165;-81
2021/09/25 06:08:56;;;;;;;;;;;;;;;13.91;64.90;101534.23;1726819;83;20123;-81
2021/09/25 06:11:24;;;;;;;;;;;;;;;13.99;64.10;101531.94;1729511;83;20176;-79
2021/09/25 06:13:51;;;;;;;;;;;;;;;14.08;63.56;101532.63;1724058;83;20148;-76
2021/09/25 06:16:17;;;;;;;;;;;;;;;14.18;63.61;101537.61;1725962;83;20117;-81
2021/09/25 06:18:43;;;;;;;;;;;;;;;14.25;62.32;101550.62;1716603;83;21154;-80
2021/09/25 06:21:13;;;;;;;;;;;;;;;14.35;62.65;101544.34;1726098;83;20125;-82
2021/09/25 06:23:39;;;;;;;;;;;;;;;14.42;61.64;101546.45;1722970;83;20097;-77
2021/09/25 06:26:07;;;;;;;;;;;;;;;14.49;60.88;101554.20;1727009;81;20121;-79
2021/09/25 06:28:33;;;;;;;;;;;;;;;14.58;61.27;101554.88;1728355;83;20088;-78
2021/09/25 06:30:59;;;;;;;;;;;;;;;14.66;60.92;101561.73;1725983;83;21830;-82
2021/09/25 06:33:27;;;;;;;;;;;;;;;14.73;59.97;101574.75;1726961;82;20088;-79
2021/09/25 06:35:54;;;;;;;;;;;;;;;14.77;59.79;101561.81;1720973;83;20161;-79
2021/09/25 06:38:21;;;;;;;;;;;;;;;14.82;60.27;101561.05;1726083;83;20097;-79
2021/09/25 06:40:47;;;;;;;;;;;;;;;14.88;60.54;101563.69;1729079;83;20088;-82
2021/09/25 06:43:14;;;;;;;;;;;;;;;14.95;60.52;101567.56;1727932;83;21164;-82
2021/09/25 06:45:41;;;;;;;;;;;;;;;15.02;59.80;101566.19;1729652;83;20093;-80
2021/09/25 06:48:08;;;;;;;;;;;;;;;15.11;59.53;101564.23;1729764;83;20112;-78
2021/09/25 06:50:34;;;;;;;;;;;;;;;15.16;59.32;101566.50;1728739;83;20188;-79
2021/09/25 06:53:00;;;;;;;;;;;;;;;15.23;59.20;101573.82;1729404;83;20145;-78
2021/09/25 06:55:27;;;;;;;;;;;;;;;15.31;58.91;101581.13;1716279;83;21155;-81
2021/09/25 06:57:53;;;;;;;;;;;;;;;15.38;59.46;101590.19;1727035;83;20117;-79
2021/09/25 07:00:19;;;;;;;;;;;;;;;15.48;58.43;101589.93;1725655;83;20140;-84
2021/09/25 07:02:46;;;;;;;;;;;;;;;15.56;58.19;101590.23;1724351;83;20469;-82
2021/09/25 07:05:12;;;;;;;;;;;;;;;15.62;58.15;101595.02;1720481;83;20172;-83
2021/09/25 07:07:38;;;;;;;;;;;;;;;15.70;57.86;101589.20;1725651;83;21081;-77
2021/09/25 07:10:06;;;;;;;;;;;;;;;15.80;58.63;101596.29;1729254;83;20179;-79
2021/09/25 07:12:33;;;;;;;;;;;;;;;15.87;56.54;101588.36;1729413;83;20305;-77
2021/09/25 07:14:59;;;;;;;;;;;;;;;15.91;56.92;101592.06;1729316;81;20399;-78
2021/09/25 07:17:26;;;;;;;;;;;;;;;15.94;57.09;101596.59;1729383;83;20132;-83
2021/09/25 07:19:52;;;;;;;;;;;;;;;16.00;57.26;101593.52;1725305;83;21144;-82
2021/09/25 07:22:19;;;;;;;;;;;;;;;16.05;56.40;101599.24;1726734;83;20108;-80
2021/09/25 07:24:45;;;;;;;;;;;;;;;16.12;55.78;101605.70;1728431;83;20124;-79
2021/09/25 07:27:12;;;;;;;;;;;;;;;16.18;55.93;101620.12;1729749;82;20451;-78
2021/09/25 07:29:38;;;;;;;;;;;;;;;16.23;55.92;101612.30;1729528;83;20152;-79
2021/09/25 07:32:05;;;;;;;;;;;;;;;16.28;55.74;101616.70;1729564;83;21810;-82
2021/09/25 07:34:31;;;;;;;;;;;;;;;16.36;55.38;101617.45;1729523;83;20117;-76
2021/09/25 07:36:57;;;;;;;;;;;;;;;16.41;54.05;101624.02;1726035;83;20101;-79
2021/09/25 07:39:23;;;;;;;;;;;;;;;16.45;53.84;101619.38;1721639;83;20072;-78
2021/09/25 07:41:50;;;;;;;;;;;;;;;16.49;54.46;101627.38;1725464;83;20125;-82
2021/09/25 07:44:16;;;;;;;;;;;;;;;16.51;53.79;101628.09;1728340;83;21146;-79
2021/09/25 07:46:42;;;;;;;;;;;;;;;16.55;53.12;101627.41;1727104;82;20451;-80
2021/09/25 07:49:09;;;;;;;;;;;;;;;16.63;52.81;101625.88;1727981;83;20093;-80
2021/09/25 07:51:35;;;;;;;;;;;;;;;16.74;50.85;101626.37;1729610;83;20184;-85
2021/09/25 07:54:01;;;;;;;;;;;;;;;16.81;50.90;101635.45;1724116;83;20085;-79
2021/09/25 07:56:27;;;;;;;;;;;;;;;16.90;50.12;101642.12;1725370;83;21203;-76
2021/09/25 07:58:54;;;;;;;;;;;;;;;16.90;50.33;101645.22;1723629;83;20219;-78
2021/09/25 08:01:20;;;;;;;;;;;;;;;16.94;49.09;101646.66;1727681;83;20108;-80
2021/09/25 08:03:46;;;;;;;;;;;;;;;16.98;49.33;101652.01;1729516;83;20108;-82
2021/09/25 08:06:12;;;;;;;;;;;;;;;16.98;49.99;101655.10;1727818;82;20085;-76
2021/09/25 08:08:38;;;;;;;;;;;;;;;17.01;50.17;101648.34;1728915;82;21508;-77
2021/09/25 08:11:05;;;;;;;;;;;;;;;17.11;49.34;101655.83;1722870;83;20144;-82
2021/09/25 08:13:31;;;;;;;;;;;;;;;17.19;47.13;101651.67;1726205;83;20096;-82
2021/09/25 08:15:58;;;;;;;;;;;;;;;17.20;47.34;101650.70;1729655;83;20407;-84
2021/09/25 08:18:26;;;;;;;;;;;;;;;17.27;47.78;101647.13;1724580;83;20189;-78
2021/09/25 08:20:52;;;;;;;;;;;;;;;17.33;44.59;101646.64;1729603;83;21226;-74
2021/09/25 08:23:18;;;;;;;;;;;;;;;17.37;45.58;101655.47;1718443;83;20431;-78
2021/09/25 08:25:45;;;;;;;;;;;;;;;17.45;44.53;101651.75;1720189;83;20156;-83
2021/09/25 08:28:11;;;;;;;;;;;;;;;17.58;44.75;101652.15;1724361;83;20101;-79
2021/09/25 08:30:37;;;;;;;;;;;;;;;17.67;44.29;101654.88;1720845;83;20105;-79
2021/09/25 08:33:04;;;;;;;;;;;;;;;17.72;43.97;101642.67;1726063;83;21545;-79
2021/09/25 08:35:30;;;;;;;;;;;;;;;17.77;45.16;101654.97;1725814;83;20113;-76
2021/09/25 08:37:56;;;;;;;;;;;;;;;17.88;49.09;101660.17;1725293;83;20147;-83
2021/09/25 08:40:23;;;;;;;;;;;;;;;17.91;50.61;101652.05;1729565;83;20128;-79
2021/09/25 08:42:51;;;;;;;;;;;;;;;17.89;50.71;101651.35;1729638;83;20163;-79
2021/09/25 08:45:17;;;;;;;;;;;;;;;17.85;51.09;101663.05;1729599;83;20738;-84
2021/09/25 08:47:44;;;;;;;;;;;;;;;17.84;50.67;101660.06;1725654;83;20171;-80
2021/09/25 08:50:11;;;;;;;;;;;;;;;17.79;50.87;101657.83;1729522;83;20419;-77
2021/09/25 08:52:37;;;;;;;;;;;;;;;17.80;51.61;101654.72;1724254;83;20096;-82
2021/09/25 08:55:05;;;;;;;;;;;;;;;17.81;51.32;101661.63;1720487;83;20433;-78
2021/09/25 08:57:31;;;;;;;;;;;;;;;17.84;51.42;101664.00;1729762;83;21150;-74
2021/09/25 09:00:37;;;;;;;;;;;;;;;17.88;51.33;101661.48;1725714;82;20084;-84
2021/09/25 09:03:21;;;;;;;;;;;;;;;17.96;51.40;101667.78;1721199;83;20121;-75
2021/09/25 09:05:49;;;;;;;;;;;;;;;18.01;50.39;101655.60;1726551;83;20228;-78
2021/09/25 09:08:18;;;;;;;;;;;;;;;18.02;50.62;101657.28;1728236;83;20123;-83
2021/09/25 09:10:43;;;;;;;;;;;;;;;18.11;50.54;101653.06;1729288;83;21104;-80
2021/09/25 09:13:09;;;;;;;;;;;;;;;18.23;50.46;101659.45;1729573;83;20100;-77
2021/09/25 09:15:38;;;;;;;;;;;;;;;18.21;49.96;101659.23;1728000;83;20188;-76
2021/09/25 09:18:13;;;;;;;;;;;;;;;18.20;49.44;101666.75;1729537;83;20148;-83
2021/09/25 09:20:39;;;;;;;;;;;;;;;18.30;49.12;101671.13;1722454;83;20154;-77
2021/09/25 09:23:15;;;;;;;;;;;;;;;18.45;48.87;101655.41;1718584;83;21168;-78
2021/09/25 09:25:41;;;;;;;;;;;;;;;18.64;48.49;101673.13;1718559;83;20456;-77
2021/09/25 09:28:25;;;;;;;;;;;;;;;18.69;47.87;101678.02;1723228;83;20140;-78
2021/09/25 09:30:54;;;;;;;;;;;;;;;18.67;47.76;101677.29;1718746;83;20073;-78
2021/09/25 09:33:35;;;;;;;;;;;;;;;18.67;47.84;101678.13;1729099;83;20125;-78
2021/09/25 09:36:20;;;;;;;;;;;;;;;19.18;46.95;101669.39;1723913;83;21151;-88
2021/09/25 09:38:50;;;;;;;;;;;;;;;20.23;45.02;101672.80;1724899;81;20097;-81
2021/09/25 09:41:18;;;;;;;;;;;;;;;21.24;43.46;101676.53;1729428;82;20172;-77
2021/09/25 09:43:45;;;;;;;;;;;;;;;22.20;40.85;101670.67;1729781;83;20202;-78
2021/09/25 09:46:12;;;;;;;;;;;;;;;22.85;37.40;101669.84;1731144;83;20411;-78
2021/09/25 09:48:39;;;;;;;;;;;;;;;23.31;36.75;101667.27;1725646;83;21122;-81
2021/09/25 09:51:05;;;;;;;;;;;;;;;24.17;35.21;101662.91;1716145;83;20183;-86
2021/09/25 09:53:44;;;;;;;;;;;;;;;24.65;33.76;101665.20;1721976;83;20199;-75
2021/09/25 09:56:20;;;;;;;;;;;;;;;25.01;32.92;101658.52;1715173;83;20234;-77
2021/09/25 09:58:55;;;;;;;;;;;;;;;25.22;32.11;101650.80;1721005;82;20148;-77
2021/09/25 10:01:22;;;;;;;;;;;;;;;25.84;30.57;101659.30;1722261;83;21187;-76
2021/09/25 10:03:49;;;;;;;;;;;;;;;26.65;30.53;101656.81;1723454;83;20778;-77
2021/09/25 10:06:15;;;;;;;;;;;;;;;27.47;28.05;101662.41;1719055;83;20160;-80
2021/09/25 10:08:41;;;;;;;;;;;;;;;27.60;25.48;101659.88;1725946;82;20178;-78
2021/09/25 10:11:08;;;;;;;;;;;;;;;27.02;25.65;101655.45;1726436;83;20446;-82
2021/09/25 10:13:35;;;;;;;;;;;;;;;27.58;26.37;101657.91;1727989;82;21147;-79
2021/09/25 10:16:01;;;;;;;;;;;;;;;28.59;24.91;101654.16;1729625;83;20183;-79
2021/09/25 10:18:27;;;;;;;;;;;;;;;29.20;23.87;101656.47;1728286;83;20151;-85
2021/09/25 10:20:53;;;;;;;;;;;;;;;29.07;22.77;101662.58;1729337;83;20089;-78
2021/09/25 10:23:20;;;;;;;;;;;;;;;28.19;23.65;101664.52;1730564;82;20169;-81
2021/09/25 10:25:46;;;;;;;;;;;;;;;28.15;23.44;101670.42;1729752;83;21106;-82
2021/09/25 10:28:23;;;;;;;;;;;;;;;27.56;23.54;101673.29;1729676;83;20443;-79
2021/09/25 10:30:51;;;;;;;;;;;;;;;26.72;25.09;101669.22;1729334;83;20170;-75
2021/09/25 10:33:17;;;;;;;;;;;;;;;26.16;26.29;101662.59;1728709;83;20085;-79
2021/09/25 10:35:44;;;;;;;;;;;;;;;26.39;26.15;101661.21;1723044;82;20513;-78
2021/09/25 10:38:10;;;;;;;;;;;;;;;25.94;25.98;101664.69;1721359;83;21211;-79
2021/09/25 10:40:38;;;;;;;;;;;;;;;25.06;26.83;101660.64;1728497;83;20447;-82
2021/09/25 10:43:23;;;;;;;;;;;;;;;24.37;27.88;101668.72;1724747;82;20200;-80
2021/09/25 10:45:55;;;;;;;;;;;;;;;23.96;28.70;101667.00;1724383;83;20157;-78
2021/09/25 10:48:25;;;;;;;;;;;;;;;23.62;29.15;101670.56;1727599;83;20084;-78
2021/09/25 10:51:01;;;;;;;;;;;;;;;23.26;29.60;101670.91;1720808;82;21231;-77
2021/09/25 10:53:37;;;;;;;;;;;;;;;22.92;30.68;101661.61;1729458;83;20105;-76
2021/09/25 10:56:18;;;;;;;;;;;;;;;22.57;30.58;101669.97;1717610;83;20435;-79
2021/09/25 10:58:56;;;;;;;;;;;;;;;22.24;31.46;101672.52;1720623;83;20144;-80
2021/09/25 11:01:34;;;;;;;;;;;;;;;22.36;31.31;101674.78;1713220;83;20127;-81
2021/09/25 11:04:08;;;;;;;;;;;;;;;22.84;30.72;101667.71;1716287;83;21231;-75
2021/09/25 11:06:43;;;;;;;;;;;;;;;23.16;30.35;101676.33;1719714;83;20171;-80
2021/09/25 11:09:27;;;;;;;;;;;;;;;23.57;29.10;101673.37;1729791;83;20093;-76
2021/09/25 11:11:55;;;;;;;;;;;;;;;23.75;28.57;101679.38;1722902;83;20084;-75
2021/09/25 11:14:23;;;;;;;;;;;;;;;24.21;28.96;101672.20;1728272;83;20086;-75
2021/09/25 11:16:55;;;;;;;;;;;;;;;25.03;28.51;101673.77;1727523;82;21141;-78
2021/09/25 11:19:25;;;;;;;;;;;;;;;25.16;27.28;101663.93;1724502;83;20459;-79
2021/09/25 11:22:04;;;;;;;;;;;;;;;24.72;27.30;101674.98;1719734;83;20104;-76
2021/09/25 11:24:33;;;;;;;;;;;;;;;24.68;27.75;101660.38;1729629;82;20096;-81
2021/09/25 11:27:00;;;;;;;;;;;;;;;24.94;27.07;101653.55;1726643;83;20150;-81
2021/09/25 11:29:26;;;;;;;;;;;;;;;24.63;27.35;101659.23;1728908;83;21823;-78
2021/09/25 11:32:01;;;;;;;;;;;;;;;24.23;27.95;101658.27;1729677;83;20116;-78
2021/09/25 11:34:29;;;;;;;;;;;;;;;23.74;28.49;101657.02;1729656;83;20117;-80
2021/09/25 11:36:57;;;;;;;;;;;;;;;23.29;29.56;101651.56;1725916;83;20494;-78
2021/09/25 11:39:26;;;;;;;;;;;;;;;22.91;29.79;101654.16;1729579;83;20498;-79
2021/09/25 11:42:21;;;;;;;;;;;;;;;22.70;30.79;101656.36;1725710;83;21790;-76
2021/09/25 11:44:57;;;;;;;;;;;;;;;22.58;30.55;101658.41;1720787;82;20140;-80
2021/09/25 11:47:30;;;;;;;;;;;;;;;22.26;30.84;101662.12;1711609;83;20129;-81
2021/09/25 11:49:58;;;;;;;;;;;;;;;22.08;31.73;101667.92;1719756;83;20101;-83
2021/09/25 11:52:25;;;;;;;;;;;;;;;22.05;32.87;101663.74;1728710;83;20217;-75
2021/09/25 11:54:51;;;;;;;;;;;;;;;22.05;33.59;101661.09;1713376;83;21157;-81
2021/09/25 11:57:20;;;;;;;;;;;;;;;22.19;33.10;101649.66;1721712;83;20462;-79
2021/09/25 11:59:46;;;;;;;;;;;;;;;22.14;33.71;101654.09;1727585;82;20430;-78
2021/09/25 12:02:33;;;;;;;;;;;;;;;22.05;32.97;101646.56;1716230;83;20113;-79
2021/09/25 12:05:00;;;;;;;;;;;;;;;22.09;32.62;101653.21;1721304;83;20157;-76
2021/09/25 12:07:40;;;;;;;;;;;;;;;22.08;33.09;101642.29;1729703;83;21828;-78
2021/09/25 12:10:07;;;;;;;;;;;;;;;22.04;32.79;101656.81;1723231;83;20089;-75
2021/09/25 12:12:34;;;;;;;;;;;;;;;21.97;32.94;101653.59;1714806;83;20117;-85
2021/09/25 12:15:00;;;;;;;;;;;;;;;21.90;33.30;101649.40;1725119;82;20285;-86
2021/09/25 12:17:26;;;;;;;;;;;;;;;21.85;33.83;101649.00;1729608;83;20139;-82
2021/09/25 12:19:53;;;;;;;;;;;;;;;21.96;33.51;101645.31;1727816;83;21852;-82
2021/09/25 12:22:23;;;;;;;;;;;;;;;22.15;33.68;101643.84;1725207;83;20129;-75
2021/09/25 12:24:50;;;;;;;;;;;;;;;22.28;33.79;101641.63;1728386;82;20179;-80
2021/09/25 12:27:28;;;;;;;;;;;;;;;22.38;33.62;101645.02;1726960;83;20132;-81
2021/09/25 12:29:54;;;;;;;;;;;;;;;22.50;32.21;101635.02;1722073;83;20129;-78
2021/09/25 12:32:25;;;;;;;;;;;;;;;22.56;32.51;101645.81;1728855;83;21162;-78
2021/09/25 12:34:50;;;;;;;;;;;;;;;22.60;31.98;101648.49;1724736;83;20085;-80
2021/09/25 12:37:16;;;;;;;;;;;;;;;22.48;31.85;101646.25;1726356;83;20093;-80
2021/09/25 12:39:44;;;;;;;;;;;;;;;22.32;32.30;101650.09;1720614;83;20125;-78
2021/09/25 12:42:15;;;;;;;;;;;;;;;22.26;32.66;101656.84;1724963;82;20092;-78